createdAt,value
2019-05-16T00:00:59.299Z,10.50
2019-05-16T00:03:27.974Z,10.50
2019-05-16T00:05:58.223Z,10.50
2019-05-16T00:08:25.052Z,10.50
2019-05-16T00:10:52.466Z,10.50
2019-05-16T00:13:20.271Z,10.40
2019-05-16T00:15:48.074Z,10.50
2019-05-16T00:18:18.376Z,10.50
2019-05-16T00:20:45.969Z,10.50
2019-05-16T00:23:13.378Z,10.40
2019-05-16T00:25:41.518Z,10.50
2019-05-16T00:28:09.079Z,10.40
2019-05-16T00:30:38.960Z,10.40
2019-05-16T00:33:08.337Z,10.40
2019-05-16T00:35:35.652Z,10.40
2019-05-16T00:38:03.650Z,10.30
2019-05-16T00:40:31.205Z,10.40
2019-05-16T00:42:59.115Z,10.40
2019-05-16T00:45:29.155Z,10.40
2019-05-16T00:47:58.300Z,10.30
2019-05-16T00:50:25.533Z,10.30
2019-05-16T00:52:53.152Z,10.30
2019-05-16T00:55:20.818Z,10.30
2019-05-16T00:57:50.433Z,10.30
2019-05-16T01:00:22.847Z,10.30
2019-05-16T01:02:50.341Z,10.30
2019-05-16T01:05:19.150Z,10.30
2019-05-16T01:07:48.012Z,10.30
2019-05-16T01:10:18.135Z,10.30
2019-05-16T01:12:45.085Z,10.30
2019-05-16T01:15:12.816Z,10.30
2019-05-16T01:17:40.361Z,10.30
2019-05-16T01:20:08.597Z,10.20
2019-05-16T01:22:38.508Z,10.20
2019-05-16T01:25:09.038Z,10.20
2019-05-16T01:27:38.366Z,10.20
2019-05-16T01:30:05.996Z,10.20
2019-05-16T01:32:33.553Z,10.10
2019-05-16T01:35:00.920Z,10.10
2019-05-16T01:37:28.238Z,10.10
2019-05-16T01:39:55.739Z,10.10
2019-05-16T01:42:23.233Z,10.10
2019-05-16T01:44:52.009Z,10.10
2019-05-16T01:47:19.626Z,10.10
2019-05-16T01:49:48.751Z,10.10
2019-05-16T01:52:17.879Z,10.10
2019-05-16T01:54:45.407Z,10.10
2019-05-16T01:57:12.726Z,10.10
2019-05-16T01:59:40.249Z,10.00
2019-05-16T02:02:08.376Z,10.00
2019-05-16T02:04:38.109Z,10.00
2019-05-16T02:07:08.581Z,10.00
2019-05-16T02:09:38.380Z,10.00
2019-05-16T02:12:08.130Z,10.00
2019-05-16T02:14:35.327Z,10.00
2019-05-16T02:17:02.895Z,10.00
2019-05-16T02:19:30.449Z,10.00
2019-05-16T02:21:59.641Z,10.00
2019-05-16T02:24:28.470Z,10.00
2019-05-16T02:26:58.299Z,10.00
2019-05-16T02:29:25.747Z,10.00
2019-05-16T02:31:53.245Z,10.00
2019-05-16T02:34:21.731Z,10.00
2019-05-16T02:37:10.671Z,10.00
2019-05-16T02:39:31.986Z,10.00
2019-05-16T02:42:01.022Z,10.00
2019-05-16T02:44:31.963Z,9.90
2019-05-16T02:47:01.239Z,10.00
2019-05-16T02:49:30.750Z,10.00
2019-05-16T02:51:56.672Z,9.90
2019-05-16T02:54:24.142Z,10.00
2019-05-16T02:56:51.593Z,9.90
2019-05-16T02:59:20.619Z,9.90
2019-05-16T03:01:51.779Z,9.90
2019-05-16T03:04:17.551Z,9.90
2019-05-16T03:06:45.614Z,9.90
2019-05-16T03:09:13.217Z,9.90
2019-05-16T03:11:41.888Z,9.90
2019-05-16T03:14:11.254Z,9.90
2019-05-16T03:16:41.813Z,9.90
2019-05-16T03:19:12.169Z,9.90
2019-05-16T03:21:42.323Z,9.90
2019-05-16T03:24:11.349Z,9.90
2019-05-16T03:26:40.897Z,9.90
2019-05-16T03:29:11.198Z,9.90
2019-05-16T03:31:43.688Z,9.90
2019-05-16T03:34:08.042Z,9.90
2019-05-16T03:36:36.776Z,9.90
2019-05-16T03:39:05.206Z,9.90
2019-05-16T03:41:32.731Z,9.90
2019-05-16T03:44:01.375Z,9.90
2019-05-16T03:46:30.937Z,9.90
2019-05-16T03:49:02.034Z,9.90
2019-05-16T03:51:30.689Z,9.90
2019-05-16T03:53:56.971Z,9.90
2019-05-16T03:56:24.627Z,9.90
2019-05-16T03:58:52.170Z,9.90
2019-05-16T04:01:21.184Z,9.90
2019-05-16T04:03:51.131Z,9.90
2019-05-16T04:06:21.872Z,9.90
2019-05-16T04:08:51.022Z,9.90
2019-05-16T04:11:22.699Z,9.90
2019-05-16T04:13:47.059Z,10.00
2019-05-16T04:16:14.616Z,9.90
2019-05-16T04:18:42.358Z,10.00
2019-05-16T04:21:11.762Z,10.00
2019-05-16T04:23:41.993Z,10.00
2019-05-16T04:26:11.299Z,10.00
2019-05-16T04:28:41.288Z,10.00
2019-05-16T04:31:10.937Z,10.00
2019-05-16T04:33:37.676Z,10.00
2019-05-16T04:36:05.166Z,10.00
2019-05-16T04:38:40.677Z,10.00
2019-05-16T04:41:01.985Z,10.00
2019-05-16T04:43:31.538Z,10.10
2019-05-16T04:46:01.351Z,10.10
2019-05-16T04:48:31.075Z,10.10
2019-05-16T04:51:01.029Z,10.10
2019-05-16T04:53:27.443Z,10.10
2019-05-16T04:55:54.875Z,10.10
2019-05-16T04:58:23.737Z,10.10
2019-05-16T05:00:52.368Z,10.10
2019-05-16T05:03:21.127Z,10.10
2019-05-16T05:05:51.277Z,10.10
2019-05-16T05:08:21.397Z,10.10
2019-05-16T05:10:47.635Z,10.10
2019-05-16T05:13:15.180Z,10.10
2019-05-16T05:15:42.489Z,10.20
2019-05-16T05:18:12.042Z,10.20
2019-05-16T05:20:41.033Z,10.20
2019-05-16T05:23:09.850Z,10.20
2019-05-16T05:25:40.201Z,10.20
2019-05-16T05:28:06.881Z,10.30
2019-05-16T05:30:34.703Z,10.30
2019-05-16T05:33:02.342Z,10.40
2019-05-16T05:35:31.064Z,10.40
2019-05-16T05:38:00.407Z,10.40
2019-05-16T05:40:29.700Z,10.50
2019-05-16T05:42:59.731Z,10.60
2019-05-16T05:45:26.566Z,10.70
2019-05-16T05:47:54.038Z,10.80
2019-05-16T05:50:21.867Z,10.90
2019-05-16T05:52:51.151Z,11.00
2019-05-16T05:58:06.268Z,11.10
2019-05-16T06:00:33.788Z,11.30
2019-05-16T06:03:01.750Z,11.40
2019-05-16T06:05:30.589Z,11.50
2019-05-16T06:08:00.327Z,11.60
2019-05-16T06:10:27.797Z,11.70
2019-05-16T06:12:55.381Z,11.70
2019-05-16T06:15:23.301Z,11.80
2019-05-16T06:17:51.039Z,11.80
2019-05-16T06:20:20.368Z,11.90
2019-05-16T06:22:48.044Z,11.90
2019-05-16T06:25:15.640Z,11.90
2019-05-16T06:27:43.175Z,11.90
2019-05-16T06:30:11.739Z,11.90
2019-05-16T06:32:39.594Z,11.90
2019-05-16T06:35:09.545Z,11.90
2019-05-16T06:37:36.861Z,12.00
2019-05-16T06:40:04.540Z,12.00
2019-05-16T06:42:32.166Z,12.10
2019-05-16T06:45:00.872Z,12.10
2019-05-16T06:47:30.490Z,12.20
2019-05-16T06:50:00.074Z,12.20
2019-05-16T06:52:27.243Z,12.20
2019-05-16T06:54:55.867Z,12.20
2019-05-16T06:57:23.351Z,12.30
2019-05-16T06:59:50.881Z,12.40
2019-05-16T07:02:27.719Z,12.50
2019-05-16T07:04:50.448Z,12.60
2019-05-16T07:07:17.539Z,12.70
2019-05-16T07:09:58.155Z,12.70
2019-05-16T07:12:14.715Z,12.70
2019-05-16T07:14:43.744Z,12.80
2019-05-16T07:17:11.314Z,12.80
2019-05-16T07:19:40.790Z,12.80
2019-05-16T07:22:10.923Z,12.80
2019-05-16T07:24:39.829Z,12.90
2019-05-16T07:27:09.109Z,12.90
2019-05-16T07:29:37.193Z,13.00
2019-05-16T07:32:04.709Z,13.10
2019-05-16T07:34:32.066Z,13.10
2019-05-16T07:37:00.579Z,13.20
2019-05-16T07:39:30.516Z,13.20
2019-05-16T07:41:59.816Z,13.30
2019-05-16T07:44:26.754Z,13.30
2019-05-16T07:46:54.250Z,13.40
2019-05-16T07:49:21.878Z,13.40
2019-05-16T07:51:49.858Z,13.50
2019-05-16T07:54:17.666Z,13.60
2019-05-16T07:56:45.379Z,13.70
2019-05-16T07:59:12.955Z,13.80
2019-05-16T08:01:43.193Z,13.90
2019-05-16T08:04:11.432Z,14.00
2019-05-16T08:06:40.881Z,14.10
2019-05-16T08:09:12.079Z,14.10
2019-05-16T08:11:40.612Z,14.10
2019-05-16T08:14:07.333Z,14.10
2019-05-16T08:16:34.771Z,14.20
2019-05-16T08:19:02.317Z,14.30
2019-05-16T08:21:30.930Z,14.30
2019-05-16T08:24:05.833Z,14.40
2019-05-16T08:26:32.366Z,14.40
2019-05-16T08:29:01.778Z,14.40
2019-05-16T08:31:27.774Z,14.40
2019-05-16T08:33:55.855Z,14.50
2019-05-16T08:36:23.347Z,14.50
2019-05-16T08:38:51.674Z,14.50
2019-05-16T08:43:53.415Z,14.50
2019-05-16T08:46:20.715Z,14.40
2019-05-16T08:48:53.351Z,14.40
2019-05-16T08:51:21.992Z,14.30
2019-05-16T08:53:50.446Z,14.30
2019-05-16T08:56:21.468Z,14.20
2019-05-16T08:58:47.527Z,14.20
2019-05-16T09:01:15.180Z,14.10
2019-05-16T09:03:42.677Z,14.10
2019-05-16T09:06:11.918Z,14.00
2019-05-16T09:08:39.469Z,13.90
2019-05-16T09:10:31.602Z,14.50
2019-05-16T09:11:27.072Z,13.90
2019-05-16T09:13:37.069Z,13.80
2019-05-16T09:16:07.490Z,13.70
2019-05-16T09:18:40.807Z,13.60
2019-05-16T09:21:03.422Z,13.60
2019-05-16T09:23:31.973Z,13.60
2019-05-16T09:25:59.531Z,13.60
2019-05-16T09:28:28.286Z,13.70
2019-05-16T09:30:57.720Z,13.70
2019-05-16T09:33:27.148Z,13.80
2019-05-16T09:35:57.239Z,14.10
2019-05-16T09:38:24.118Z,14.20
2019-05-16T09:40:51.774Z,14.40
2019-05-16T09:43:19.344Z,14.60
2019-05-16T09:45:49.777Z,14.70
2019-05-16T09:48:18.976Z,14.80
2019-05-16T09:50:46.991Z,14.90
2019-05-16T09:53:16.911Z,14.90
2019-05-16T09:55:46.771Z,15.00
2019-05-16T09:58:13.810Z,14.90
2019-05-16T10:00:41.279Z,14.90
2019-05-16T10:03:10.178Z,14.90
2019-05-16T10:05:37.808Z,14.80
2019-05-16T10:08:07.048Z,14.80
2019-05-16T10:10:36.937Z,14.70
2019-05-16T10:13:06.674Z,14.60
2019-05-16T10:15:34.312Z,14.60
2019-05-16T10:18:01.848Z,14.50
2019-05-16T10:20:29.407Z,14.50
2019-05-16T10:22:57.980Z,14.50
2019-05-16T10:25:27.681Z,14.60
2019-05-16T10:27:55.379Z,14.60
2019-05-16T10:30:23.544Z,14.60
2019-05-16T10:32:51.339Z,14.50
2019-05-16T10:35:19.105Z,14.50
2019-05-16T10:37:47.484Z,14.40
2019-05-16T10:40:17.702Z,14.30
2019-05-16T10:42:47.159Z,14.20
2019-05-16T10:45:17.031Z,14.10
2019-05-16T10:47:47.781Z,14.10
2019-05-16T10:50:16.682Z,14.00
2019-05-16T10:52:44.259Z,14.00
2019-05-16T10:55:12.055Z,14.00
2019-05-16T10:57:40.118Z,14.00
2019-05-16T11:00:18.127Z,13.90
2019-05-16T11:02:38.034Z,13.90
2019-05-16T11:05:25.888Z,13.80
2019-05-16T11:07:37.125Z,13.70
2019-05-16T11:10:07.092Z,13.70
2019-05-16T11:12:47.586Z,13.60
2019-05-16T11:15:10.809Z,13.60
2019-05-16T11:17:37.183Z,13.60
2019-05-16T11:20:04.227Z,13.50
2019-05-16T11:22:31.722Z,13.50
2019-05-16T11:24:59.275Z,13.60
2019-05-16T11:27:26.894Z,13.60
2019-05-16T11:29:56.519Z,13.60
2019-05-16T11:32:23.608Z,13.60
2019-05-16T11:34:52.324Z,13.60
2019-05-16T11:37:19.862Z,13.50
2019-05-16T11:39:49.493Z,13.40
2019-05-16T11:42:17.640Z,13.30
2019-05-16T11:44:47.821Z,13.10
2019-05-16T11:47:16.596Z,13.00
2019-05-16T11:49:44.278Z,13.00
2019-05-16T11:52:11.781Z,12.90
2019-05-16T11:54:39.420Z,12.90
2019-05-16T11:57:07.254Z,12.90
2019-05-16T11:59:37.137Z,12.80
2019-05-16T12:02:04.551Z,12.90
2019-05-16T12:04:32.005Z,12.90
2019-05-16T12:06:59.497Z,12.90
2019-05-16T12:09:33.678Z,12.90
2019-05-16T12:12:03.918Z,12.90
2019-05-16T12:14:27.248Z,12.90
2019-05-16T12:16:56.939Z,12.90
2019-05-16T12:19:24.161Z,12.90
2019-05-16T12:21:51.737Z,13.00
2019-05-16T12:24:31.833Z,13.00
2019-05-16T12:26:48.886Z,13.00
2019-05-16T12:29:17.341Z,13.00
2019-05-16T12:31:55.380Z,13.00
2019-05-16T12:34:14.331Z,13.00
2019-05-16T12:36:41.844Z,13.00
2019-05-16T12:39:09.553Z,13.00
2019-05-16T12:41:40.957Z,13.10
2019-05-16T12:44:07.585Z,13.20
2019-05-16T12:46:36.563Z,13.30
2019-05-16T12:49:07.179Z,13.40
2019-05-16T12:51:37.010Z,13.50
2019-05-16T12:54:04.771Z,13.60
2019-05-16T12:56:32.350Z,13.60
2019-05-16T12:58:59.945Z,13.60
2019-05-16T13:01:34.197Z,13.60
2019-05-16T13:03:56.753Z,13.50
2019-05-16T13:06:24.575Z,13.40
2019-05-16T13:08:53.547Z,13.40
2019-05-16T13:11:26.846Z,13.40
2019-05-16T13:14:03.401Z,13.30
2019-05-16T13:16:22.877Z,13.30
2019-05-16T13:18:50.368Z,13.20
2019-05-16T13:21:19.151Z,13.10
2019-05-16T13:23:47.166Z,13.10
2019-05-16T13:26:17.490Z,13.00
2019-05-16T13:28:47.568Z,12.90
2019-05-16T13:31:16.935Z,12.80
2019-05-16T13:33:44.022Z,12.70
2019-05-16T13:36:11.485Z,12.60
2019-05-16T13:38:39.133Z,12.50
2019-05-16T13:41:07.565Z,12.40
2019-05-16T13:43:37.542Z,12.40
2019-05-16T13:46:07.036Z,12.40
2019-05-16T13:48:34.272Z,12.40
2019-05-16T13:51:13.851Z,12.30
2019-05-16T13:53:31.521Z,12.30
2019-05-16T13:55:59.213Z,12.30
2019-05-16T13:58:28.275Z,12.30
2019-05-16T14:00:57.175Z,12.30
2019-05-16T14:03:27.522Z,12.30
2019-05-16T14:05:54.278Z,12.30
2019-05-16T14:08:21.700Z,12.30
2019-05-16T14:10:49.403Z,12.30
2019-05-16T14:13:16.985Z,12.30
2019-05-16T14:15:47.087Z,12.30
2019-05-16T14:18:13.919Z,12.40
2019-05-16T14:20:41.511Z,12.40
2019-05-16T14:23:09.773Z,12.50
2019-05-16T14:25:38.092Z,12.60
2019-05-16T14:28:07.676Z,12.60
2019-05-16T14:30:37.177Z,12.60
2019-05-16T14:33:13.000Z,12.60
2019-05-16T14:35:34.585Z,12.70
2019-05-16T14:38:02.227Z,12.70
2019-05-16T14:40:29.921Z,12.70
2019-05-16T14:42:58.266Z,12.80
2019-05-16T14:45:26.370Z,12.80
2019-05-16T14:47:54.061Z,12.80
2019-05-16T14:50:21.541Z,12.80
2019-05-16T14:52:49.114Z,12.90
2019-05-16T14:55:18.594Z,12.90
2019-05-16T14:57:47.407Z,12.80
2019-05-16T15:00:18.500Z,12.90
2019-05-16T15:02:47.946Z,12.90
2019-05-16T15:05:16.148Z,13.00
2019-05-16T15:07:43.477Z,13.10
2019-05-16T15:10:11.579Z,13.20
2019-05-16T15:12:39.143Z,13.30
2019-05-16T15:15:20.229Z,13.30
2019-05-16T15:17:39.237Z,13.40
2019-05-16T15:20:08.095Z,13.50
2019-05-16T15:22:38.577Z,13.50
2019-05-16T15:25:09.496Z,13.70
2019-05-16T15:27:37.468Z,13.80
2019-05-16T15:30:06.950Z,13.90
2019-05-16T15:32:38.434Z,13.90
2019-05-16T15:35:07.432Z,14.00
2019-05-16T15:37:37.349Z,13.90
2019-05-16T15:40:07.212Z,13.80
2019-05-16T15:42:37.005Z,13.80
2019-05-16T15:45:06.831Z,13.80
2019-05-16T15:47:37.544Z,13.80
2019-05-16T15:50:07.874Z,13.70
2019-05-16T15:52:38.241Z,13.70
2019-05-16T15:55:10.190Z,13.80
2019-05-16T15:57:38.120Z,13.90
2019-05-16T16:00:10.473Z,14.00
2019-05-16T16:02:38.134Z,14.00
2019-05-16T16:05:07.308Z,14.00
2019-05-16T16:07:37.734Z,14.00
2019-05-16T16:10:07.191Z,14.00
2019-05-16T16:12:37.533Z,14.00
2019-05-16T16:15:07.583Z,13.90
2019-05-16T16:17:37.666Z,13.80
2019-05-16T16:20:09.904Z,13.70
2019-05-16T16:22:37.682Z,13.60
2019-05-16T16:25:06.889Z,13.60
2019-05-16T16:27:33.946Z,13.50
2019-05-16T16:30:02.574Z,13.50
2019-05-16T16:32:32.022Z,13.50
2019-05-16T16:34:59.447Z,13.40
2019-05-16T16:37:27.470Z,13.40
2019-05-16T16:39:57.462Z,13.40
2019-05-16T16:42:27.107Z,13.40
2019-05-16T16:44:56.448Z,13.30
2019-05-16T16:47:27.019Z,13.30
2019-05-16T16:49:59.050Z,13.30
2019-05-16T16:52:24.281Z,13.30
2019-05-16T16:54:51.874Z,13.30
2019-05-16T16:57:19.421Z,13.40
2019-05-16T16:59:47.757Z,13.30
2019-05-16T17:02:17.130Z,13.30
2019-05-16T17:04:50.285Z,13.30
2019-05-16T17:07:16.720Z,13.20
2019-05-16T17:09:44.222Z,13.20
2019-05-16T17:12:11.692Z,13.20
2019-05-16T17:14:39.241Z,13.20
2019-05-16T17:17:07.183Z,13.10
2019-05-16T17:19:36.708Z,13.10
2019-05-16T17:22:14.636Z,13.00
2019-05-16T17:24:36.496Z,13.00
2019-05-16T17:27:03.619Z,13.00
2019-05-16T17:29:31.051Z,12.90
2019-05-16T17:32:05.765Z,12.90
2019-05-16T17:34:28.431Z,12.80
2019-05-16T17:36:57.169Z,12.80
2019-05-16T17:39:24.709Z,12.70
2019-05-16T17:41:54.983Z,12.60
2019-05-16T17:44:22.313Z,12.60
2019-05-16T17:46:52.872Z,12.50
2019-05-16T17:49:19.837Z,12.60
2019-05-16T17:51:47.388Z,12.50
2019-05-16T17:54:17.104Z,12.50
2019-05-16T17:56:44.361Z,12.50
2019-05-16T17:59:12.094Z,12.50
2019-05-16T18:01:39.801Z,12.50
2019-05-16T18:04:07.546Z,12.50
2019-05-16T18:06:37.127Z,12.50
2019-05-16T18:09:06.750Z,12.40
2019-05-16T18:11:37.272Z,12.40
2019-05-16T18:14:06.252Z,12.40
2019-05-16T18:16:49.720Z,12.40
2019-05-16T18:19:06.908Z,12.40
2019-05-16T18:21:34.053Z,12.40
2019-05-16T18:24:01.562Z,12.40
2019-05-16T18:26:29.299Z,12.40
2019-05-16T18:28:59.123Z,12.40
2019-05-16T18:31:32.222Z,12.40
2019-05-16T18:34:00.258Z,12.40
2019-05-16T18:36:27.636Z,12.40
2019-05-16T18:38:57.268Z,12.30
2019-05-16T18:41:27.074Z,12.30
2019-05-16T18:43:56.471Z,12.30
2019-05-16T18:46:23.731Z,12.30
2019-05-16T18:48:51.530Z,12.30
2019-05-16T18:51:19.209Z,12.30
2019-05-16T18:53:46.892Z,12.20
2019-05-16T18:56:16.600Z,12.30
2019-05-16T18:58:43.986Z,12.30
2019-05-16T19:01:11.479Z,12.30
2019-05-16T19:03:39.181Z,12.30
2019-05-16T19:06:07.759Z,12.20
2019-05-16T19:08:36.441Z,12.20
2019-05-16T19:11:07.179Z,12.20
2019-05-16T19:13:34.186Z,12.30
2019-05-16T19:16:01.762Z,12.20
2019-05-16T19:18:29.345Z,12.20
2019-05-16T19:20:57.240Z,12.20
2019-05-16T19:23:27.299Z,12.20
2019-05-16T19:25:56.892Z,12.20
2019-05-16T19:28:28.258Z,12.20
2019-05-16T19:30:54.004Z,12.20
2019-05-16T19:33:21.537Z,12.20
2019-05-16T19:35:49.132Z,12.20
2019-05-16T19:38:17.085Z,12.20
2019-05-16T19:40:46.925Z,12.20
2019-05-16T19:43:14.278Z,12.20
2019-05-16T19:45:41.951Z,12.20
2019-05-16T19:48:09.851Z,12.20
2019-05-16T19:50:39.094Z,12.20
2019-05-16T19:53:07.690Z,12.20
2019-05-16T19:55:40.329Z,12.20
2019-05-16T19:58:07.990Z,12.20
2019-05-16T20:00:37.757Z,12.20
2019-05-16T20:03:07.381Z,12.20
2019-05-16T20:05:37.224Z,12.20
2019-05-16T20:08:06.649Z,12.10
2019-05-16T20:10:36.488Z,12.10
2019-05-16T20:13:04.107Z,12.10
2019-05-16T20:15:31.848Z,12.10
2019-05-16T20:17:59.382Z,12.10
2019-05-16T20:20:27.560Z,12.10
2019-05-16T20:22:56.692Z,12.10
2019-05-16T20:25:44.083Z,12.10
2019-05-16T20:28:18.484Z,12.10
2019-05-16T20:30:59.840Z,12.10
2019-05-16T20:33:37.930Z,12.10
2019-05-16T20:36:37.152Z,12.10
2019-05-16T20:39:13.315Z,12.10
2019-05-16T20:41:59.326Z,12.10
2019-05-16T20:44:46.394Z,12.00
2019-05-16T20:47:18.250Z,12.00
2019-05-16T20:49:58.227Z,12.00
2019-05-16T20:52:26.908Z,12.00
2019-05-16T20:54:57.865Z,12.00
2019-05-16T20:57:26.573Z,12.00
2019-05-16T20:59:54.180Z,12.00
2019-05-16T21:02:21.882Z,12.00
2019-05-16T21:04:49.525Z,12.00
2019-05-16T21:07:17.369Z,11.90
2019-05-16T21:09:46.142Z,11.90
2019-05-16T21:12:13.795Z,11.90
2019-05-16T21:14:41.248Z,11.90
2019-05-16T21:17:09.438Z,11.90
2019-05-16T21:19:39.349Z,11.90
2019-05-16T21:22:07.272Z,11.80
2019-05-16T21:24:37.263Z,11.80
2019-05-16T21:27:04.588Z,11.80
2019-05-16T21:29:32.354Z,11.80
2019-05-16T21:31:59.780Z,11.80
2019-05-16T21:34:27.371Z,11.80
2019-05-16T21:36:58.329Z,11.80
2019-05-16T21:39:26.482Z,11.70
2019-05-16T21:41:56.408Z,11.70
2019-05-16T21:44:23.398Z,11.70
2019-05-16T21:46:53.448Z,11.70
2019-05-16T21:49:20.302Z,11.70
2019-05-16T21:51:47.775Z,11.70
2019-05-16T21:54:15.673Z,11.70
2019-05-16T21:56:43.293Z,11.70
2019-05-16T21:59:10.936Z,11.70
2019-05-16T22:01:38.841Z,11.70
2019-05-16T22:04:07.351Z,11.70
2019-05-16T22:06:36.577Z,11.70
2019-05-16T22:09:06.782Z,11.70
2019-05-16T22:11:37.067Z,11.70
2019-05-16T22:14:06.494Z,11.70
2019-05-16T22:16:37.057Z,11.70
2019-05-16T22:19:06.940Z,11.70
2019-05-16T22:21:34.342Z,11.70
2019-05-16T22:24:03.248Z,11.60
2019-05-16T22:26:30.858Z,11.60
2019-05-16T22:28:58.336Z,11.60
2019-05-16T22:31:28.113Z,11.60
2019-05-16T22:33:55.736Z,11.60
2019-05-16T22:36:23.370Z,11.70
2019-05-16T22:38:50.850Z,11.60
2019-05-16T22:41:18.291Z,11.70
2019-05-16T22:43:46.687Z,11.70
2019-05-16T22:46:14.569Z,11.70
2019-05-16T22:48:42.752Z,11.70
2019-05-16T22:51:10.733Z,11.70
2019-05-16T22:53:38.874Z,11.70
2019-05-16T22:56:07.482Z,11.70
2019-05-16T22:58:35.272Z,11.70
2019-05-16T23:01:03.277Z,11.70
2019-05-16T23:03:30.779Z,11.70
2019-05-16T23:05:58.257Z,11.70
2019-05-16T23:08:27.258Z,11.70
2019-05-16T23:10:56.537Z,11.70
2019-05-16T23:13:26.646Z,11.70
2019-05-16T23:15:53.664Z,11.70
2019-05-16T23:18:21.247Z,11.70
2019-05-16T23:20:48.672Z,11.70
2019-05-16T23:23:17.438Z,11.60
2019-05-16T23:25:46.187Z,11.70
2019-05-16T23:28:13.670Z,11.60
2019-05-16T23:30:41.273Z,11.60
2019-05-16T23:33:09.480Z,11.70
2019-05-16T23:35:37.600Z,11.60
2019-05-16T23:38:16.430Z,11.60
2019-05-16T23:40:36.818Z,11.60
2019-05-16T23:43:03.989Z,11.70
2019-05-16T23:45:31.549Z,11.70
2019-05-16T23:47:59.061Z,11.70
2019-05-16T23:50:27.532Z,11.60
2019-05-16T23:52:56.330Z,11.60
2019-05-16T23:55:23.849Z,11.60
2019-05-16T23:57:51.363Z,11.60
